Tiaret, Algeria
Current Conditions -  °F | °C
As of 8:00 AM on Wednesday 26 Nov 2014 (Local Time) from DAOB Reporting Station
Scattered Clouds Scattered Clouds  
Wind Chill: 50°   Ceiling: Unl
Heat Index: 50°   Visibility: 6mi
Dew Point: 48°   Wind: 0mph
Humidity: 94%   Direction: NA
Pressure: 30.03"   Gusts: NA
Location:  35.25°N, 1.43°E
Report Text: DAOB 260700Z 00000KT 9999 SCT026 SCT093 10/09 Q1017
Loading
Personal Weather Stations






























Interactive Weather Map New forecast layout! Learn more

10-Day Weather Forecast

Advertisements
Track Severe Weather on mobile